createdAt,value
2022-10-14T00:00:14.791Z,7.30
2022-10-14T00:02:45.428Z,7.03
2022-10-14T00:05:16.107Z,4.67
2022-10-14T00:07:46.751Z,10.73
2022-10-14T00:10:17.425Z,5.40
2022-10-14T00:12:48.362Z,8.03
2022-10-14T00:15:19.355Z,5.60
2022-10-14T00:17:49.854Z,5.73
2022-10-14T00:20:21.092Z,4.33
2022-10-14T00:22:51.665Z,7.47
2022-10-14T00:25:22.265Z,4.67
2022-10-14T00:27:52.820Z,7.23
2022-10-14T00:30:23.498Z,9.73
2022-10-14T00:32:54.181Z,6.83
2022-10-14T00:35:24.717Z,5.60
2022-10-14T00:37:55.937Z,5.90
2022-10-14T00:40:26.630Z,7.53
2022-10-14T00:42:57.128Z,6.20
2022-10-14T00:45:27.964Z,5.43
2022-10-14T00:47:58.525Z,7.37
2022-10-14T00:50:29.043Z,10.10
2022-10-14T00:53:00.073Z,6.53
2022-10-14T00:55:31.545Z,9.80
2022-10-14T00:58:02.134Z,7.07
2022-10-14T01:00:33.006Z,5.57
2022-10-14T01:03:08.219Z,6.77
2022-10-14T01:05:42.465Z,7.37
2022-10-14T01:08:16.473Z,13.10
2022-10-14T01:10:50.138Z,4.80
2022-10-14T01:13:25.838Z,11.17
2022-10-14T01:16:02.695Z,6.27
2022-10-14T01:18:45.281Z,8.07
2022-10-14T01:21:20.927Z,6.80
2022-10-14T01:24:29.148Z,6.57
2022-10-14T01:27:21.257Z,7.67
2022-10-14T01:30:15.074Z,7.23
2022-10-14T01:32:56.689Z,7.93
2022-10-14T01:35:32.821Z,5.40
2022-10-14T01:38:06.425Z,9.07
2022-10-14T01:40:40.217Z,9.57
2022-10-14T01:43:11.600Z,6.57
2022-10-14T01:45:45.096Z,6.97
2022-10-14T01:48:17.419Z,9.93
2022-10-14T01:50:50.492Z,10.00
2022-10-14T01:53:24.352Z,12.80
2022-10-14T01:55:57.417Z,7.97
2022-10-14T01:58:31.741Z,9.53
2022-10-14T02:01:03.773Z,11.87
2022-10-14T02:03:43.597Z,12.90
2022-10-14T02:06:18.469Z,7.23
2022-10-14T02:08:56.468Z,11.53
2022-10-14T02:11:27.561Z,14.27
2022-10-14T02:14:11.244Z,7.73
2022-10-14T02:16:44.962Z,9.43
2022-10-14T02:19:22.769Z,11.70
2022-10-14T02:21:57.479Z,8.80
2022-10-14T02:24:31.408Z,5.43
2022-10-14T02:27:05.143Z,6.43
2022-10-14T02:29:37.935Z,8.40
2022-10-14T02:32:09.372Z,5.33
2022-10-14T02:34:41.517Z,12.50
2022-10-14T02:37:14.260Z,8.10
2022-10-14T02:39:48.400Z,13.67
2022-10-14T02:42:19.280Z,9.00
2022-10-14T02:44:58.261Z,12.93
2022-10-14T02:47:29.606Z,11.07
2022-10-14T02:50:00.144Z,8.83
2022-10-14T02:52:30.664Z,16.37
2022-10-14T02:55:01.343Z,14.70
2022-10-14T02:57:31.872Z,10.97
2022-10-14T03:00:02.421Z,8.70
2022-10-14T03:02:32.993Z,10.97
2022-10-14T03:05:03.573Z,9.97
2022-10-14T03:07:34.090Z,8.67
2022-10-14T03:10:05.227Z,8.63
2022-10-14T03:12:36.090Z,5.77
2022-10-14T03:15:09.116Z,6.40
2022-10-14T03:17:40.107Z,7.87
2022-10-14T03:20:12.861Z,8.33
2022-10-14T03:22:43.566Z,9.80
2022-10-14T03:25:14.128Z,6.53
2022-10-14T03:27:45.130Z,10.43
2022-10-14T03:30:15.877Z,13.20
2022-10-14T03:32:46.417Z,8.70
2022-10-14T03:35:17.193Z,11.40
2022-10-14T03:37:47.705Z,7.10
2022-10-14T03:40:18.495Z,10.07
2022-10-14T03:42:50.492Z,12.27
2022-10-14T03:45:21.015Z,10.50
2022-10-14T03:47:51.536Z,7.40
2022-10-14T03:50:22.107Z,9.40
2022-10-14T03:52:55.568Z,6.40
2022-10-14T03:55:25.567Z,10.20
2022-10-14T03:57:56.097Z,7.43
2022-10-14T04:00:26.767Z,5.80
2022-10-14T04:02:57.401Z,8.50
2022-10-14T04:05:29.565Z,6.57
2022-10-14T04:08:00.156Z,8.27
2022-10-14T04:10:31.305Z,8.37
2022-10-14T04:13:01.955Z,10.30
2022-10-14T04:15:32.503Z,7.17
2022-10-14T04:18:03.031Z,6.57
2022-10-14T04:20:33.588Z,12.83
2022-10-14T04:25:41.552Z,9.70
2022-10-14T04:28:12.087Z,12.70
2022-10-14T04:30:43.737Z,11.00
2022-10-14T04:33:14.494Z,20.27
2022-10-14T04:35:45.153Z,18.10
2022-10-14T04:38:15.896Z,11.83
2022-10-14T04:40:47.946Z,15.23
2022-10-14T04:43:18.529Z,13.90
2022-10-14T04:45:49.524Z,18.30
2022-10-14T04:48:20.156Z,15.80
2022-10-14T04:50:53.723Z,13.17
2022-10-14T04:53:24.839Z,14.73
2022-10-14T04:55:55.374Z,14.93
2022-10-14T04:58:26.042Z,17.17
2022-10-14T05:00:57.894Z,15.00
2022-10-14T05:03:28.583Z,14.00
2022-10-14T05:05:59.168Z,12.67
2022-10-14T05:08:29.842Z,11.00
2022-10-14T05:11:00.392Z,11.87
2022-10-14T05:13:31.333Z,13.03
2022-10-14T05:16:02.364Z,12.80
2022-10-14T05:18:33.103Z,13.20
2022-10-14T05:21:04.056Z,17.40
2022-10-14T05:23:34.767Z,16.67
2022-10-14T05:26:10.365Z,11.97
2022-10-14T05:28:41.327Z,12.63
2022-10-14T05:31:12.262Z,9.33
2022-10-14T05:33:42.904Z,13.63
2022-10-14T05:36:13.621Z,8.83
2022-10-14T05:38:44.508Z,14.73
2022-10-14T05:41:15.245Z,13.03
2022-10-14T05:43:45.879Z,11.40
2022-10-14T05:46:16.488Z,9.13
2022-10-14T05:48:47.230Z,13.70
2022-10-14T05:51:19.434Z,8.63
2022-10-14T05:53:50.339Z,9.97
2022-10-14T05:56:21.185Z,11.30
2022-10-14T05:58:51.900Z,9.17
2022-10-14T06:01:22.564Z,13.00
2022-10-14T06:03:54.202Z,13.20
2022-10-14T06:06:28.825Z,13.50
2022-10-14T06:08:58.738Z,12.73
2022-10-14T06:11:29.591Z,17.03
2022-10-14T06:14:01.314Z,19.83
2022-10-14T06:16:32.357Z,13.60
2022-10-14T06:19:03.103Z,14.80
2022-10-14T06:21:33.748Z,15.77
2022-10-14T06:24:05.103Z,13.07
2022-10-14T06:26:35.969Z,13.27
2022-10-14T06:29:06.614Z,14.00
2022-10-14T06:31:37.383Z,16.93
2022-10-14T06:34:09.396Z,21.40
2022-10-14T06:36:40.035Z,16.13
2022-10-14T06:39:11.197Z,12.23
2022-10-14T06:41:41.882Z,14.20
2022-10-14T06:44:13.897Z,12.90
2022-10-14T06:46:44.571Z,12.67
2022-10-14T06:49:15.123Z,14.27
2022-10-14T06:51:45.904Z,13.77
2022-10-14T06:54:17.733Z,17.40
2022-10-14T06:56:48.370Z,11.77
2022-10-14T06:59:19.823Z,15.23
2022-10-14T07:01:50.503Z,13.27
2022-10-14T07:04:21.249Z,13.60
2022-10-14T07:06:52.284Z,13.20
2022-10-14T07:09:23.111Z,17.90
2022-10-14T07:11:53.944Z,11.47
2022-10-14T07:14:24.865Z,13.63
2022-10-14T07:16:55.600Z,11.20
2022-10-14T07:19:26.258Z,17.43
2022-10-14T07:21:57.135Z,18.67
2022-10-14T07:24:28.165Z,13.57
2022-10-14T07:26:58.885Z,17.07
2022-10-14T07:29:29.539Z,16.07
2022-10-14T07:32:00.451Z,17.40
2022-10-14T07:34:31.263Z,22.67
2022-10-14T07:39:40.472Z,18.23
2022-10-14T07:42:11.197Z,16.60
2022-10-14T07:44:41.845Z,16.83
2022-10-14T07:47:13.258Z,18.17
2022-10-14T07:49:43.964Z,18.70
2022-10-14T07:52:15.882Z,15.33
2022-10-14T07:54:47.016Z,20.93
2022-10-14T07:57:17.708Z,16.30
2022-10-14T07:59:48.314Z,17.97
2022-10-14T08:05:18.993Z,18.03
2022-10-14T08:07:31.615Z,15.93
2022-10-14T08:10:03.154Z,16.77
2022-10-14T08:12:33.968Z,18.87
2022-10-14T08:15:05.049Z,16.47
2022-10-14T08:17:35.883Z,14.03
2022-10-14T08:20:08.062Z,15.93
2022-10-14T08:22:38.816Z,12.10
2022-10-14T08:25:10.767Z,14.30
2022-10-14T08:27:41.379Z,10.97
2022-10-14T08:30:13.652Z,10.97
2022-10-14T08:32:44.282Z,11.90
2022-10-14T08:35:15.035Z,14.97
2022-10-14T08:37:45.730Z,16.37
2022-10-14T08:40:18.719Z,15.13
2022-10-14T08:42:52.870Z,10.17
2022-10-14T08:48:08.044Z,9.23
2022-10-14T08:50:42.940Z,12.47
2022-10-14T08:53:17.060Z,12.13
2022-10-14T08:55:51.052Z,13.53
2022-10-14T09:00:57.713Z,12.43
2022-10-14T09:03:33.917Z,12.57
2022-10-14T09:06:08.583Z,14.37
2022-10-14T09:11:20.686Z,9.73
2022-10-14T09:13:54.561Z,9.50
2022-10-14T09:16:27.625Z,8.83
2022-10-14T09:19:00.491Z,8.37
2022-10-14T09:21:51.631Z,11.43
2022-10-14T09:24:12.753Z,10.53
2022-10-14T09:26:46.688Z,12.70
2022-10-14T09:29:30.645Z,10.63
2022-10-14T09:32:04.597Z,14.73
2022-10-14T09:34:38.781Z,11.13
2022-10-14T09:40:12.974Z,15.10
2022-10-14T09:42:50.101Z,14.80
2022-10-14T09:45:23.885Z,11.33
2022-10-14T09:47:58.486Z,11.40
2022-10-14T09:50:34.020Z,13.23
2022-10-14T09:53:10.923Z,10.40
2022-10-14T09:55:44.657Z,12.73
2022-10-14T09:58:20.175Z,11.37
2022-10-14T10:00:53.347Z,14.60
2022-10-14T10:03:33.783Z,10.57
2022-10-14T10:06:10.487Z,14.07
2022-10-14T10:08:44.598Z,18.20
2022-10-14T10:11:17.845Z,11.73
2022-10-14T10:13:50.028Z,10.53
2022-10-14T10:16:26.616Z,11.70
2022-10-14T10:19:00.835Z,10.37
2022-10-14T10:21:33.289Z,9.13
2022-10-14T10:24:07.547Z,10.60
2022-10-14T10:26:39.389Z,8.10
2022-10-14T10:29:13.302Z,9.70
2022-10-14T10:32:08.877Z,12.13
2022-10-14T10:35:08.077Z,10.83
2022-10-14T10:37:46.944Z,9.20
2022-10-14T10:40:49.103Z,9.87
2022-10-14T10:43:43.165Z,18.20
2022-10-14T10:46:24.375Z,11.80
2022-10-14T10:48:58.573Z,13.23
2022-10-14T10:51:32.681Z,8.23
2022-10-14T10:54:09.295Z,11.60
2022-10-14T10:56:45.232Z,9.20
2022-10-14T10:59:31.727Z,9.77
2022-10-14T11:02:12.215Z,9.50
2022-10-14T11:04:47.257Z,10.00
2022-10-14T11:07:38.418Z,10.50
2022-10-14T11:10:31.652Z,14.50
2022-10-14T11:13:08.191Z,8.60
2022-10-14T11:15:46.928Z,9.07
2022-10-14T11:21:06.534Z,8.33
2022-10-14T11:24:03.824Z,9.53
2022-10-14T11:26:45.833Z,5.80
2022-10-14T11:32:09.164Z,3.03
2022-10-14T11:34:56.940Z,3.50
2022-10-14T11:37:33.183Z,4.77
2022-10-14T11:40:08.351Z,6.50
2022-10-14T11:42:48.691Z,2.80
2022-10-14T11:45:43.794Z,3.73
2022-10-14T11:48:22.023Z,5.43
2022-10-14T11:50:57.709Z,5.27
2022-10-14T11:53:34.664Z,3.40
2022-10-14T11:56:09.581Z,2.93
2022-10-14T11:58:43.561Z,4.53
2022-10-14T12:01:17.029Z,3.23
2022-10-14T12:06:34.552Z,2.57
2022-10-14T12:09:08.716Z,8.93
2022-10-14T12:11:43.479Z,4.07
2022-10-14T12:14:17.368Z,3.40
2022-10-14T12:16:50.188Z,3.80
2022-10-14T12:19:24.754Z,5.97
2022-10-14T12:21:58.959Z,9.03
2022-10-14T12:24:33.577Z,5.53
2022-10-14T12:27:07.055Z,10.07
2022-10-14T12:29:40.862Z,6.17
2022-10-14T12:32:22.261Z,3.73
2022-10-14T12:34:57.714Z,5.30
2022-10-14T12:40:32.035Z,4.60
2022-10-14T12:43:11.629Z,2.70
2022-10-14T12:46:02.472Z,3.13
2022-10-14T12:48:36.208Z,5.03
2022-10-14T12:51:13.448Z,5.70
2022-10-14T12:54:10.166Z,4.73
2022-10-14T12:56:43.966Z,4.60
2022-10-14T12:59:25.657Z,2.07
2022-10-14T13:02:04.277Z,5.23
2022-10-14T13:04:35.265Z,5.40
2022-10-14T13:07:41.717Z,2.83
2022-10-14T13:13:54.114Z,3.90
2022-10-14T13:17:05.682Z,1.63
2022-10-14T13:19:46.913Z,1.03
2022-10-14T13:22:41.929Z,3.30
2022-10-14T13:25:25.085Z,2.73
2022-10-14T13:28:18.264Z,2.40
2022-10-14T13:30:55.339Z,2.87
2022-10-14T13:33:30.263Z,2.23
2022-10-14T13:38:45.989Z,2.00
2022-10-14T13:41:24.666Z,2.10
2022-10-14T13:44:13.864Z,2.33
2022-10-14T13:46:47.110Z,2.37
2022-10-14T13:49:20.891Z,1.90
2022-10-14T13:51:53.817Z,2.30
2022-10-14T13:54:27.091Z,3.80
2022-10-14T13:59:44.260Z,2.73
2022-10-14T14:02:16.736Z,1.80
2022-10-14T14:04:51.829Z,2.50
2022-10-14T14:08:14.658Z,6.27
2022-10-14T14:10:01.440Z,3.13
2022-10-14T14:12:32.076Z,7.90
2022-10-14T14:15:03.500Z,3.37
2022-10-14T14:17:36.066Z,2.03
2022-10-14T14:20:12.721Z,1.73
2022-10-14T14:22:45.312Z,3.00
2022-10-14T14:25:50.890Z,5.27
2022-10-14T14:27:58.497Z,5.90
2022-10-14T14:30:33.062Z,2.37
2022-10-14T14:33:06.261Z,4.43
2022-10-14T14:35:36.881Z,2.90
2022-10-14T14:38:08.913Z,2.60
2022-10-14T14:40:39.467Z,1.80
2022-10-14T14:43:12.236Z,2.40
2022-10-14T14:45:46.628Z,3.57
2022-10-14T14:48:19.253Z,2.00
2022-10-14T14:50:50.432Z,2.10
2022-10-14T14:53:24.039Z,3.83
2022-10-14T14:56:07.873Z,3.23
2022-10-14T14:58:40.419Z,1.40
2022-10-14T15:01:19.811Z,3.63
2022-10-14T15:04:12.230Z,2.00
2022-10-14T15:06:31.378Z,3.27
2022-10-14T15:09:04.807Z,3.93
2022-10-14T15:11:35.413Z,1.60
2022-10-14T15:14:06.150Z,4.50
2022-10-14T15:16:42.447Z,2.87
2022-10-14T15:19:26.547Z,4.23
2022-10-14T15:22:14.932Z,4.40
2022-10-14T15:25:09.226Z,1.60
2022-10-14T15:27:54.952Z,1.73
2022-10-14T15:30:33.994Z,6.77
2022-10-14T15:33:08.179Z,4.13
2022-10-14T15:35:39.046Z,2.63
2022-10-14T15:38:17.355Z,3.23
2022-10-14T15:40:49.206Z,2.73
2022-10-14T15:43:21.347Z,3.73
2022-10-14T15:46:13.462Z,5.63
2022-10-14T15:48:47.018Z,2.60
2022-10-14T15:51:19.914Z,2.93
2022-10-14T15:53:50.454Z,2.67
2022-10-14T15:56:21.718Z,5.60
2022-10-14T15:58:52.587Z,2.90
2022-10-14T16:01:24.639Z,5.83
2022-10-14T16:03:55.521Z,4.77
2022-10-14T16:06:27.644Z,2.53
2022-10-14T16:08:58.204Z,3.67
2022-10-14T16:11:30.741Z,2.60
2022-10-14T16:14:01.388Z,1.50
2022-10-14T16:16:35.624Z,2.37
2022-10-14T16:19:06.203Z,2.10
2022-10-14T16:21:37.402Z,3.30
2022-10-14T16:24:13.193Z,4.13
2022-10-14T16:26:43.853Z,2.40
2022-10-14T16:29:14.879Z,2.93
2022-10-14T16:31:46.902Z,3.13
2022-10-14T16:34:17.653Z,3.53
2022-10-14T16:36:49.084Z,6.33
2022-10-14T16:39:21.249Z,2.30
2022-10-14T16:41:51.777Z,3.83
2022-10-14T16:44:40.934Z,3.13
2022-10-14T16:47:19.797Z,5.10
2022-10-14T16:49:52.793Z,4.07
2022-10-14T16:52:23.579Z,3.37
2022-10-14T16:54:54.499Z,3.33
2022-10-14T16:57:25.198Z,4.83
2022-10-14T16:59:55.712Z,4.00
2022-10-14T17:02:27.875Z,5.50
2022-10-14T17:04:58.545Z,5.57
2022-10-14T17:07:29.124Z,10.93
2022-10-14T17:09:59.705Z,7.83
2022-10-14T17:12:30.426Z,8.20
2022-10-14T17:17:40.647Z,4.03
2022-10-14T17:20:12.666Z,4.80
2022-10-14T17:22:43.214Z,5.93
2022-10-14T17:25:13.879Z,2.97
2022-10-14T17:27:44.411Z,4.37
2022-10-14T17:30:15.920Z,4.07
2022-10-14T17:32:46.596Z,4.43
2022-10-14T17:35:17.320Z,3.10
2022-10-14T17:37:47.817Z,3.93
2022-10-14T17:40:18.602Z,6.47
2022-10-14T17:42:50.549Z,8.00
2022-10-14T17:45:21.090Z,6.80
2022-10-14T17:47:51.623Z,3.73
2022-10-14T17:50:22.993Z,6.17
2022-10-14T17:52:53.699Z,5.60
2022-10-14T17:55:24.236Z,5.90
2022-10-14T17:57:54.805Z,3.17
2022-10-14T18:00:25.328Z,2.53
2022-10-14T18:02:55.991Z,3.23
2022-10-14T18:05:26.795Z,5.10
2022-10-14T18:07:57.448Z,3.73
2022-10-14T18:10:28.263Z,4.90
2022-10-14T18:12:58.914Z,9.47
2022-10-14T18:18:07.248Z,2.33
2022-10-14T18:20:39.776Z,4.87
2022-10-14T18:23:11.634Z,6.80
2022-10-14T18:25:42.895Z,3.93
2022-10-14T18:28:13.543Z,2.00
2022-10-14T18:30:44.287Z,4.77
2022-10-14T18:33:15.210Z,2.60
2022-10-14T18:35:48.703Z,7.43
2022-10-14T18:38:19.898Z,2.50
2022-10-14T18:40:53.247Z,4.23
2022-10-14T18:43:24.368Z,6.17
2022-10-14T18:45:55.211Z,3.73
2022-10-14T18:48:26.029Z,2.87
2022-10-14T18:51:03.743Z,4.47
2022-10-14T18:53:35.482Z,2.87
2022-10-14T18:58:51.256Z,3.93
2022-10-14T19:01:22.937Z,4.43
2022-10-14T19:03:55.533Z,4.27
2022-10-14T19:06:27.302Z,3.13
2022-10-14T19:08:58.436Z,3.10
2022-10-14T19:11:29.883Z,2.87
2022-10-14T19:14:03.870Z,7.33
2022-10-14T19:16:36.792Z,2.70
2022-10-14T19:19:11.892Z,2.50
2022-10-14T19:21:43.576Z,5.93
2022-10-14T19:24:15.179Z,5.37
2022-10-14T19:26:48.187Z,6.17
2022-10-14T19:29:19.247Z,3.77
2022-10-14T19:31:53.543Z,5.23
2022-10-14T19:34:27.049Z,3.50
2022-10-14T19:36:56.611Z,3.60
2022-10-14T19:39:27.481Z,8.03
2022-10-14T19:41:58.197Z,2.77
2022-10-14T19:44:28.992Z,2.67
2022-10-14T19:46:59.708Z,2.57
2022-10-14T19:49:30.353Z,3.53
2022-10-14T19:52:00.970Z,3.47
2022-10-14T19:54:31.710Z,1.97
2022-10-14T19:57:02.385Z,3.10
2022-10-14T19:59:33.128Z,3.73
2022-10-14T20:02:03.814Z,2.23
2022-10-14T20:04:34.391Z,2.43
2022-10-14T20:09:42.332Z,3.93
2022-10-14T20:12:13.047Z,1.67
2022-10-14T20:14:43.676Z,4.03
2022-10-14T20:17:14.475Z,3.60
2022-10-14T20:19:45.072Z,4.03
2022-10-14T20:22:15.658Z,4.20
2022-10-14T20:24:46.475Z,4.83
2022-10-14T20:27:17.304Z,6.80
2022-10-14T20:29:47.897Z,2.33
2022-10-14T20:32:18.534Z,3.60
2022-10-14T20:34:49.671Z,7.20
2022-10-14T20:37:23.023Z,3.43
2022-10-14T20:39:54.058Z,4.60
2022-10-14T20:42:24.703Z,3.17
2022-10-14T20:44:55.336Z,4.37
2022-10-14T20:47:25.935Z,3.20
2022-10-14T20:49:56.508Z,3.53
2022-10-14T20:52:27.075Z,3.83
2022-10-14T20:54:57.657Z,5.83
2022-10-14T20:57:28.220Z,4.67
2022-10-14T20:59:58.771Z,3.70
2022-10-14T21:02:29.598Z,3.50
2022-10-14T21:05:00.191Z,3.23
2022-10-14T21:07:30.707Z,9.97
2022-10-14T21:10:01.298Z,4.03
2022-10-14T21:12:31.974Z,6.30
2022-10-14T21:15:02.553Z,7.63
2022-10-14T21:17:36.516Z,5.70
2022-10-14T21:20:10.178Z,5.20
2022-10-14T21:22:40.760Z,5.77
2022-10-14T21:25:11.585Z,7.50
2022-10-14T21:27:42.237Z,4.07
2022-10-14T21:30:15.525Z,4.17
2022-10-14T21:32:46.082Z,10.37
2022-10-14T21:35:16.808Z,5.93
2022-10-14T21:37:47.310Z,3.30
2022-10-14T21:40:18.154Z,4.37
2022-10-14T21:42:48.684Z,3.00
2022-10-14T21:45:19.343Z,4.90
2022-10-14T21:47:51.531Z,5.37
2022-10-14T21:50:22.626Z,3.80
2022-10-14T21:52:53.265Z,6.13
2022-10-14T21:55:23.808Z,4.30
2022-10-14T21:57:54.313Z,5.60
2022-10-14T22:00:25.031Z,6.50
2022-10-14T22:02:56.008Z,6.13
2022-10-14T22:05:26.587Z,4.47
2022-10-14T22:07:57.094Z,5.27
2022-10-14T22:10:52.578Z,5.50
2022-10-14T22:13:23.789Z,4.43
2022-10-14T22:15:54.617Z,4.53
2022-10-14T22:18:25.702Z,6.10
2022-10-14T22:21:03.960Z,11.07
2022-10-14T22:23:34.964Z,5.23
2022-10-14T22:26:06.562Z,5.50
2022-10-14T22:28:37.185Z,4.60
2022-10-14T22:31:09.855Z,5.90
2022-10-14T22:33:41.933Z,6.00
2022-10-14T22:36:18.124Z,4.57
2022-10-14T22:38:48.294Z,5.70
2022-10-14T22:41:19.611Z,6.83
2022-10-14T22:43:51.530Z,8.13
2022-10-14T22:46:23.912Z,4.07
2022-10-14T22:48:56.420Z,5.37
2022-10-14T22:51:28.696Z,4.13
2022-10-14T22:53:59.243Z,7.07
2022-10-14T22:56:31.184Z,6.60
2022-10-14T22:59:03.530Z,6.13
2022-10-14T23:01:34.471Z,10.07
2022-10-14T23:04:05.762Z,8.77
2022-10-14T23:06:36.473Z,7.40
2022-10-14T23:09:07.256Z,7.50
2022-10-14T23:11:37.835Z,5.20
2022-10-14T23:14:08.520Z,2.97
2022-10-14T23:16:40.021Z,3.43
2022-10-14T23:19:11.020Z,2.90
2022-10-14T23:21:41.944Z,4.07
2022-10-14T23:24:14.449Z,5.97
2022-10-14T23:26:45.009Z,3.10
2022-10-14T23:29:15.724Z,3.20
2022-10-14T23:31:46.286Z,5.80
2022-10-14T23:34:17.261Z,5.77
2022-10-14T23:36:47.870Z,4.37
2022-10-14T23:39:18.625Z,3.50
2022-10-14T23:41:49.164Z,3.30
2022-10-14T23:44:19.766Z,4.17
2022-10-14T23:46:51.121Z,4.97
2022-10-14T23:49:25.923Z,4.87
2022-10-14T23:51:53.937Z,6.53
2022-10-14T23:54:24.899Z,6.47
2022-10-14T23:56:55.713Z,5.13
2022-10-14T23:59:26.222Z,6.07
